createdAt,value
2019-02-21T00:00:05.783Z,5.50
2019-02-21T00:01:05.837Z,5.50
2019-02-21T00:02:05.377Z,5.50
2019-02-21T00:03:05.050Z,5.44
2019-02-21T00:04:05.238Z,5.44
2019-02-21T00:05:05.385Z,5.44
2019-02-21T00:06:05.561Z,5.44
2019-02-21T00:07:05.615Z,5.44
2019-02-21T00:08:05.641Z,5.44
2019-02-21T00:09:05.787Z,5.38
2019-02-21T00:10:05.382Z,5.38
2019-02-21T00:11:05.280Z,5.31
2019-02-21T00:12:05.924Z,5.31
2019-02-21T00:13:05.208Z,5.38
2019-02-21T00:14:05.461Z,5.31
2019-02-21T00:15:05.628Z,5.25
2019-02-21T00:16:05.707Z,5.31
2019-02-21T00:17:06.018Z,5.25
2019-02-21T00:18:05.280Z,5.25
2019-02-21T00:19:05.606Z,5.25
2019-02-21T00:20:05.704Z,5.25
2019-02-21T00:21:05.365Z,5.25
2019-02-21T00:22:05.376Z,5.19
2019-02-21T00:23:05.224Z,5.19
2019-02-21T00:24:05.211Z,5.19
2019-02-21T00:25:05.543Z,5.19
2019-02-21T00:26:05.626Z,5.19
2019-02-21T00:27:05.839Z,5.19
2019-02-21T00:28:05.117Z,5.12
2019-02-21T00:29:05.438Z,5.12
2019-02-21T00:30:05.625Z,5.06
2019-02-21T00:31:06.089Z,5.06
2019-02-21T00:32:05.540Z,5.06
2019-02-21T00:33:06.009Z,5.06
2019-02-21T00:34:05.933Z,5.06
2019-02-21T00:35:05.279Z,5.06
2019-02-21T00:36:05.963Z,5.06
2019-02-21T00:37:05.938Z,5.00
2019-02-21T00:38:05.100Z,5.00
2019-02-21T00:39:05.195Z,5.00
2019-02-21T00:40:05.921Z,4.94
2019-02-21T00:41:05.224Z,5.00
2019-02-21T00:42:05.475Z,5.00
2019-02-21T00:43:06.447Z,5.00
2019-02-21T00:44:05.799Z,4.94
2019-02-21T00:45:06.014Z,5.00
2019-02-21T00:46:05.145Z,4.94
2019-02-21T00:47:05.369Z,4.94
2019-02-21T00:48:05.372Z,4.94
2019-02-21T00:49:05.860Z,4.94
2019-02-21T00:50:05.308Z,4.94
2019-02-21T00:51:05.623Z,4.94
2019-02-21T00:52:05.851Z,4.94
2019-02-21T00:53:05.115Z,4.94
2019-02-21T00:54:05.396Z,4.94
2019-02-21T00:55:05.456Z,4.88
2019-02-21T00:56:05.699Z,4.94
2019-02-21T00:57:05.204Z,4.94
2019-02-21T00:58:05.238Z,4.94
2019-02-21T00:59:05.763Z,4.94
2019-02-21T01:00:05.309Z,4.88
2019-02-21T01:01:05.476Z,4.88
2019-02-21T01:02:05.604Z,4.88
2019-02-21T01:03:06.045Z,4.88
2019-02-21T01:04:04.978Z,4.88
2019-02-21T01:05:05.680Z,4.81
2019-02-21T01:06:05.773Z,5.06
2019-02-21T01:07:05.212Z,5.00
2019-02-21T01:08:05.874Z,4.94
2019-02-21T01:09:05.941Z,4.94
2019-02-21T01:10:05.664Z,4.88
2019-02-21T01:11:05.603Z,4.88
2019-02-21T01:12:05.177Z,4.88
2019-02-21T01:13:05.215Z,4.88
2019-02-21T01:14:05.515Z,4.88
2019-02-21T01:15:05.861Z,4.81
2019-02-21T01:16:05.378Z,4.81
2019-02-21T01:17:05.870Z,4.75
2019-02-21T01:18:05.842Z,4.81
2019-02-21T01:19:05.223Z,4.75
2019-02-21T01:20:05.326Z,4.75
2019-02-21T01:21:05.371Z,4.75
2019-02-21T01:22:05.063Z,4.75
2019-02-21T01:23:05.623Z,4.75
2019-02-21T01:24:05.810Z,4.75
2019-02-21T01:25:05.932Z,4.69
2019-02-21T01:26:05.457Z,4.62
2019-02-21T01:27:05.213Z,4.56
2019-02-21T01:28:05.771Z,4.56
2019-02-21T01:29:06.023Z,4.50
2019-02-21T01:30:05.473Z,4.50
2019-02-21T01:31:05.628Z,4.44
2019-02-21T01:32:05.705Z,4.44
2019-02-21T01:33:05.066Z,4.44
2019-02-21T01:34:05.366Z,4.44
2019-02-21T01:35:05.780Z,4.44
2019-02-21T01:36:05.855Z,4.44
2019-02-21T01:37:06.025Z,4.38
2019-02-21T01:38:05.052Z,4.38
2019-02-21T01:39:05.281Z,4.38
2019-02-21T01:40:05.929Z,4.38
2019-02-21T01:41:05.143Z,4.31
2019-02-21T01:42:05.542Z,4.31
2019-02-21T01:43:05.868Z,4.31
2019-02-21T01:44:05.933Z,4.31
2019-02-21T01:45:05.291Z,4.25
2019-02-21T01:46:05.297Z,4.25
2019-02-21T01:47:05.288Z,4.25
2019-02-21T01:48:05.383Z,4.25
2019-02-21T01:49:05.367Z,4.25
2019-02-21T01:50:05.146Z,4.31
2019-02-21T01:51:05.055Z,4.25
2019-02-21T01:52:05.212Z,4.25
2019-02-21T01:53:05.538Z,4.25
2019-02-21T01:54:06.040Z,4.25
2019-02-21T01:55:05.950Z,4.25
2019-02-21T01:56:05.209Z,4.31
2019-02-21T01:57:05.385Z,4.31
2019-02-21T01:58:05.690Z,4.25
2019-02-21T01:59:06.114Z,4.25
2019-02-21T02:00:05.157Z,4.25
2019-02-21T02:01:08.283Z,4.25
2019-02-21T02:02:05.464Z,4.19
2019-02-21T02:03:06.047Z,4.19
2019-02-21T02:04:05.604Z,4.19
2019-02-21T02:05:05.149Z,4.19
2019-02-21T02:06:05.603Z,4.12
2019-02-21T02:07:06.075Z,4.12
2019-02-21T02:08:05.783Z,4.12
2019-02-21T02:09:06.109Z,4.12
2019-02-21T02:10:05.623Z,4.12
2019-02-21T02:11:05.771Z,4.12
2019-02-21T02:12:06.013Z,4.12
2019-02-21T02:13:05.239Z,4.12
2019-02-21T02:14:05.229Z,4.12
2019-02-21T02:15:05.401Z,4.06
2019-02-21T02:16:05.624Z,4.06
2019-02-21T02:17:05.633Z,4.06
2019-02-21T02:18:05.705Z,4.06
2019-02-21T02:19:06.050Z,4.12
2019-02-21T02:20:13.225Z,4.50
2019-02-21T02:21:05.477Z,4.62
2019-02-21T02:22:05.452Z,4.69
2019-02-21T02:23:05.723Z,4.75
2019-02-21T02:24:05.681Z,4.88
2019-02-21T02:25:05.215Z,4.81
2019-02-21T02:26:05.615Z,4.75
2019-02-21T02:27:05.620Z,4.75
2019-02-21T02:28:05.836Z,4.69
2019-02-21T02:29:05.465Z,4.69
2019-02-21T02:30:05.779Z,4.81
2019-02-21T02:31:05.406Z,4.81
2019-02-21T02:32:05.358Z,4.75
2019-02-21T02:33:05.524Z,4.75
2019-02-21T02:34:05.680Z,4.69
2019-02-21T02:35:05.966Z,4.69
2019-02-21T02:36:05.379Z,4.69
2019-02-21T02:37:05.964Z,4.62
2019-02-21T02:38:05.952Z,4.56
2019-02-21T02:39:05.232Z,4.56
2019-02-21T02:40:05.277Z,4.56
2019-02-21T02:41:05.536Z,4.50
2019-02-21T02:42:05.944Z,4.50
2019-02-21T02:43:05.115Z,4.50
2019-02-21T02:44:05.137Z,4.50
2019-02-21T02:45:05.553Z,4.50
2019-02-21T02:46:05.548Z,4.50
2019-02-21T02:47:05.622Z,4.50
2019-02-21T02:48:05.931Z,4.44
2019-02-21T02:49:05.127Z,4.44
2019-02-21T02:50:05.708Z,4.56
2019-02-21T02:51:05.136Z,4.56
2019-02-21T02:52:05.620Z,4.56
2019-02-21T02:53:05.282Z,4.50
2019-02-21T02:54:05.941Z,4.50
2019-02-21T02:55:05.370Z,4.50
2019-02-21T02:56:05.458Z,4.50
2019-02-21T02:57:05.608Z,4.44
2019-02-21T02:58:06.639Z,4.44
2019-02-21T02:59:05.280Z,4.44
2019-02-21T03:00:05.854Z,4.44
2019-02-21T03:01:05.223Z,4.50
2019-02-21T03:02:05.393Z,4.44
2019-02-21T03:03:05.402Z,4.50
2019-02-21T03:04:05.617Z,4.50
2019-02-21T03:05:05.924Z,4.50
2019-02-21T03:06:05.056Z,4.56
2019-02-21T03:07:05.719Z,4.50
2019-02-21T03:08:05.857Z,4.50
2019-02-21T03:09:05.204Z,4.50
2019-02-21T03:10:05.317Z,4.50
2019-02-21T03:11:05.923Z,4.50
2019-02-21T03:12:05.146Z,4.50
2019-02-21T03:13:05.864Z,4.56
2019-02-21T03:14:05.349Z,4.56
2019-02-21T03:15:05.297Z,4.56
2019-02-21T03:16:05.390Z,4.56
2019-02-21T03:17:06.021Z,4.56
2019-02-21T03:18:05.539Z,4.56
2019-02-21T03:19:05.138Z,4.56
2019-02-21T03:20:05.288Z,4.56
2019-02-21T03:21:05.443Z,4.56
2019-02-21T03:22:05.697Z,4.56
2019-02-21T03:23:05.043Z,4.56
2019-02-21T03:24:05.778Z,4.56
2019-02-21T03:25:05.058Z,4.56
2019-02-21T03:26:05.676Z,4.56
2019-02-21T03:27:05.046Z,4.56
2019-02-21T03:28:05.732Z,4.56
2019-02-21T03:29:05.665Z,4.56
2019-02-21T03:30:06.059Z,4.56
2019-02-21T03:31:05.143Z,4.56
2019-02-21T03:32:05.408Z,4.56
2019-02-21T03:33:05.394Z,4.56
2019-02-21T03:34:05.663Z,4.56
2019-02-21T03:35:05.839Z,4.56
2019-02-21T03:36:06.027Z,4.69
2019-02-21T03:37:05.433Z,4.56
2019-02-21T03:38:05.317Z,4.50
2019-02-21T03:39:05.275Z,4.50
2019-02-21T03:40:06.014Z,4.50
2019-02-21T03:41:05.595Z,4.44
2019-02-21T03:42:05.464Z,4.44
2019-02-21T03:43:05.543Z,4.44
2019-02-21T03:44:05.864Z,4.38
2019-02-21T03:45:05.699Z,4.38
2019-02-21T03:46:05.370Z,4.38
2019-02-21T03:47:05.765Z,4.38
2019-02-21T03:48:05.855Z,4.38
2019-02-21T03:49:05.191Z,4.38
2019-02-21T03:50:06.038Z,4.38
2019-02-21T03:51:05.115Z,4.38
2019-02-21T03:52:05.787Z,4.38
2019-02-21T03:53:05.124Z,4.38
2019-02-21T03:54:05.112Z,4.50
2019-02-21T03:55:05.547Z,4.50
2019-02-21T03:56:05.552Z,4.50
2019-02-21T03:57:05.111Z,4.50
2019-02-21T03:58:05.381Z,4.50
2019-02-21T03:59:05.600Z,4.50
2019-02-21T04:00:05.038Z,4.44
2019-02-21T04:01:05.431Z,4.44
2019-02-21T04:02:05.869Z,4.44
2019-02-21T04:03:05.390Z,4.50
2019-02-21T04:04:05.374Z,4.44
2019-02-21T04:05:05.289Z,4.50
2019-02-21T04:06:05.692Z,4.50
2019-02-21T04:07:06.120Z,4.50
2019-02-21T04:08:05.626Z,4.50
2019-02-21T04:09:05.784Z,4.50
2019-02-21T04:10:06.422Z,4.50
2019-02-21T04:11:05.152Z,4.50
2019-02-21T04:12:05.460Z,4.50
2019-02-21T04:13:05.115Z,4.50
2019-02-21T04:14:05.214Z,4.50
2019-02-21T04:15:05.356Z,4.56
2019-02-21T04:16:05.757Z,4.56
2019-02-21T04:17:05.136Z,4.56
2019-02-21T04:18:05.190Z,4.56
2019-02-21T04:19:05.390Z,4.56
2019-02-21T04:20:05.706Z,4.62
2019-02-21T04:21:05.297Z,4.62
2019-02-21T04:22:05.707Z,4.62
2019-02-21T04:23:06.120Z,4.56
2019-02-21T04:24:05.147Z,4.62
2019-02-21T04:25:05.387Z,4.62
2019-02-21T04:26:05.434Z,4.62
2019-02-21T04:27:05.622Z,4.62
2019-02-21T04:28:05.355Z,4.62
2019-02-21T04:29:05.945Z,4.69
2019-02-21T04:30:05.454Z,4.62
2019-02-21T04:31:05.460Z,4.69
2019-02-21T04:32:16.566Z,4.69
2019-02-21T04:33:05.470Z,4.69
2019-02-21T04:34:05.131Z,4.69
2019-02-21T04:35:05.133Z,4.69
2019-02-21T04:36:06.025Z,4.69
2019-02-21T04:37:06.012Z,4.69
2019-02-21T04:38:05.128Z,4.69
2019-02-21T04:39:05.619Z,4.69
2019-02-21T04:40:06.011Z,4.69
2019-02-21T04:41:05.704Z,4.75
2019-02-21T04:42:05.795Z,4.69
2019-02-21T04:43:06.036Z,4.75
2019-02-21T04:44:05.040Z,4.69
2019-02-21T04:45:05.769Z,4.69
2019-02-21T04:46:06.103Z,4.69
2019-02-21T04:47:05.224Z,4.75
2019-02-21T04:48:05.617Z,4.75
2019-02-21T04:49:05.708Z,4.75
2019-02-21T04:50:05.040Z,4.75
2019-02-21T04:51:05.233Z,4.75
2019-02-21T04:52:05.199Z,4.81
2019-02-21T04:53:06.015Z,4.81
2019-02-21T04:54:05.213Z,4.81
2019-02-21T04:55:05.138Z,4.81
2019-02-21T04:56:05.370Z,4.81
2019-02-21T04:57:05.453Z,4.81
2019-02-21T04:58:05.201Z,4.81
2019-02-21T04:59:06.670Z,4.81
2019-02-21T05:00:05.371Z,4.81
2019-02-21T05:01:06.021Z,4.88
2019-02-21T05:02:05.146Z,4.94
2019-02-21T05:03:05.478Z,4.88
2019-02-21T05:04:05.862Z,4.94
2019-02-21T05:05:05.059Z,4.94
2019-02-21T05:06:05.598Z,4.88
2019-02-21T05:07:05.693Z,4.88
2019-02-21T05:08:05.762Z,4.88
2019-02-21T05:09:07.454Z,4.88
2019-02-21T05:10:05.229Z,4.81
2019-02-21T05:11:05.214Z,4.81
2019-02-21T05:12:05.296Z,4.81
2019-02-21T05:13:05.379Z,4.81
2019-02-21T05:14:05.460Z,4.75
2019-02-21T05:15:05.633Z,4.75
2019-02-21T05:16:05.863Z,4.75
2019-02-21T05:17:05.965Z,4.75
2019-02-21T05:18:05.228Z,4.75
2019-02-21T05:19:05.302Z,4.75
2019-02-21T05:20:05.483Z,4.75
2019-02-21T05:21:06.055Z,4.75
2019-02-21T05:22:05.239Z,4.75
2019-02-21T05:23:05.767Z,4.75
2019-02-21T05:24:05.861Z,4.75
2019-02-21T05:25:05.886Z,4.75
2019-02-21T05:26:05.612Z,4.75
2019-02-21T05:27:05.132Z,4.75
2019-02-21T05:28:05.624Z,4.69
2019-02-21T05:29:05.627Z,4.75
2019-02-21T05:30:05.219Z,4.75
2019-02-21T05:31:06.035Z,4.75
2019-02-21T05:32:05.037Z,4.75
2019-02-21T05:33:05.228Z,4.75
2019-02-21T05:34:05.757Z,4.75
2019-02-21T05:35:05.230Z,4.75
2019-02-21T05:36:05.398Z,4.75
2019-02-21T05:37:05.528Z,4.75
2019-02-21T05:38:07.645Z,4.75
2019-02-21T05:39:05.525Z,4.81
2019-02-21T05:40:05.596Z,4.81
2019-02-21T05:41:05.940Z,4.88
2019-02-21T05:42:05.230Z,5.00
2019-02-21T05:43:05.550Z,5.12
2019-02-21T05:44:05.622Z,5.19
2019-02-21T05:45:05.680Z,5.25
2019-02-21T05:46:05.943Z,5.25
2019-02-21T05:47:05.370Z,5.31
2019-02-21T05:48:05.834Z,5.38
2019-02-21T05:49:05.185Z,5.38
2019-02-21T05:50:05.287Z,5.44
2019-02-21T05:51:05.614Z,5.44
2019-02-21T05:52:05.624Z,5.44
2019-02-21T05:53:05.138Z,5.50
2019-02-21T05:54:05.303Z,5.50
2019-02-21T05:55:05.775Z,5.50
2019-02-21T05:56:05.802Z,5.44
2019-02-21T05:57:05.438Z,5.38
2019-02-21T05:58:05.940Z,5.31
2019-02-21T05:59:05.513Z,5.25
2019-02-21T06:00:05.073Z,5.31
2019-02-21T06:01:05.303Z,5.31
2019-02-21T06:02:05.477Z,5.38
2019-02-21T06:03:06.826Z,5.31
2019-02-21T06:04:05.042Z,5.31
2019-02-21T06:05:05.385Z,5.31
2019-02-21T06:06:05.701Z,5.25
2019-02-21T06:07:05.854Z,5.25
2019-02-21T06:08:06.030Z,5.25
2019-02-21T06:09:05.124Z,5.25
2019-02-21T06:10:05.216Z,5.25
2019-02-21T06:11:05.694Z,5.19
2019-02-21T06:12:05.872Z,5.31
2019-02-21T06:13:05.957Z,5.25
2019-02-21T06:14:05.134Z,5.19
2019-02-21T06:15:05.438Z,5.06
2019-02-21T06:16:05.624Z,4.88
2019-02-21T06:17:05.705Z,4.75
2019-02-21T06:18:06.048Z,4.56
2019-02-21T06:19:05.143Z,4.44
2019-02-21T06:20:05.303Z,4.31
2019-02-21T06:21:05.520Z,4.25
2019-02-21T06:22:10.329Z,4.19
2019-02-21T06:23:05.690Z,4.06
2019-02-21T06:24:05.955Z,3.94
2019-02-21T06:25:05.377Z,3.88
2019-02-21T06:26:05.561Z,3.88
2019-02-21T06:27:05.616Z,3.81
2019-02-21T06:28:05.119Z,3.75
2019-02-21T06:29:05.294Z,3.69
2019-02-21T06:30:05.628Z,3.62
2019-02-21T06:31:05.307Z,3.62
2019-02-21T06:32:13.761Z,3.56
2019-02-21T06:33:05.949Z,3.50
2019-02-21T06:34:05.223Z,3.50
2019-02-21T06:35:05.787Z,3.44
2019-02-21T06:36:06.116Z,3.44
2019-02-21T06:37:05.197Z,3.44
2019-02-21T06:38:05.708Z,3.44
2019-02-21T06:39:05.782Z,3.38
2019-02-21T06:40:05.543Z,3.38
2019-02-21T06:41:06.573Z,3.31
2019-02-21T06:42:05.947Z,3.31
2019-02-21T06:43:05.630Z,3.25
2019-02-21T06:44:05.939Z,3.25
2019-02-21T06:45:05.616Z,3.19
2019-02-21T06:46:05.792Z,3.19
2019-02-21T06:47:06.010Z,3.19
2019-02-21T06:48:05.808Z,3.19
2019-02-21T06:49:05.788Z,3.19
2019-02-21T06:50:05.165Z,3.19
2019-02-21T06:51:05.194Z,3.12
2019-02-21T06:52:06.698Z,3.19
2019-02-21T06:53:06.017Z,3.12
2019-02-21T06:54:05.144Z,3.12
2019-02-21T06:55:06.986Z,3.12
2019-02-21T06:56:05.380Z,3.12
2019-02-21T06:57:05.758Z,3.12
2019-02-21T06:58:05.934Z,3.12
2019-02-21T06:59:05.442Z,3.12
2019-02-21T07:00:05.935Z,3.12
2019-02-21T07:01:05.025Z,3.12
2019-02-21T07:02:05.702Z,3.12
2019-02-21T07:03:15.078Z,3.12
2019-02-21T07:04:05.538Z,3.12
2019-02-21T07:05:05.934Z,3.19
2019-02-21T07:06:05.052Z,3.19
2019-02-21T07:07:05.538Z,3.19
2019-02-21T07:08:05.851Z,3.19
2019-02-21T07:09:05.127Z,3.19
2019-02-21T07:10:05.713Z,3.25
2019-02-21T07:11:06.567Z,3.25
2019-02-21T07:12:05.222Z,3.25
2019-02-21T07:13:05.308Z,3.44
2019-02-21T07:14:05.715Z,3.50
2019-02-21T07:15:05.518Z,3.56
2019-02-21T07:16:05.458Z,3.62
2019-02-21T07:17:05.208Z,3.62
2019-02-21T07:18:05.293Z,3.62
2019-02-21T07:19:06.017Z,3.69
2019-02-21T07:20:05.213Z,3.75
2019-02-21T07:21:05.836Z,3.75
2019-02-21T07:22:06.336Z,3.81
2019-02-21T07:23:06.079Z,3.88
2019-02-21T07:24:05.234Z,3.88
2019-02-21T07:25:05.478Z,3.88
2019-02-21T07:26:05.781Z,3.88
2019-02-21T07:27:05.547Z,3.94
2019-02-21T07:28:11.513Z,4.00
2019-02-21T07:29:05.850Z,4.00
2019-02-21T07:30:05.632Z,4.00
2019-02-21T07:31:05.530Z,4.06
2019-02-21T07:32:05.802Z,4.06
2019-02-21T07:33:05.783Z,4.12
2019-02-21T07:34:07.032Z,4.19
2019-02-21T07:35:05.759Z,4.25
2019-02-21T07:36:05.781Z,4.25
2019-02-21T07:37:05.309Z,4.31
2019-02-21T07:38:05.278Z,4.38
2019-02-21T07:39:16.696Z,4.38
2019-02-21T07:40:06.021Z,4.44
2019-02-21T07:41:05.446Z,4.50
2019-02-21T07:42:05.865Z,4.56
2019-02-21T07:43:05.633Z,4.62
2019-02-21T07:44:11.861Z,4.62
2019-02-21T07:45:05.920Z,4.69
2019-02-21T07:46:06.913Z,4.75
2019-02-21T07:47:06.174Z,5.00
2019-02-21T07:48:05.887Z,5.00
2019-02-21T07:49:11.063Z,5.12
2019-02-21T07:50:05.549Z,5.31
2019-02-21T07:51:05.778Z,5.25
2019-02-21T07:52:05.969Z,5.25
2019-02-21T07:53:05.311Z,5.25
2019-02-21T07:54:05.648Z,5.31
2019-02-21T07:55:05.762Z,5.25
2019-02-21T07:56:05.945Z,5.31
2019-02-21T07:57:05.217Z,5.31
2019-02-21T07:58:05.374Z,5.31
2019-02-21T07:59:05.920Z,5.31
2019-02-21T08:00:05.062Z,5.31
2019-02-21T08:01:05.939Z,5.31
2019-02-21T08:02:06.021Z,5.38
2019-02-21T08:03:05.698Z,5.38
2019-02-21T08:04:06.025Z,5.38
2019-02-21T08:05:05.215Z,5.38
2019-02-21T08:06:05.382Z,5.38
2019-02-21T08:07:05.764Z,5.44
2019-02-21T08:08:05.396Z,5.44
2019-02-21T08:09:05.531Z,5.44
2019-02-21T08:10:05.192Z,5.50
2019-02-21T08:11:07.089Z,5.50
2019-02-21T08:12:05.796Z,5.50
2019-02-21T08:13:05.864Z,5.50
2019-02-21T08:14:06.897Z,5.56
2019-02-21T08:15:05.050Z,5.56
2019-02-21T08:16:05.223Z,5.56
2019-02-21T08:17:05.354Z,5.62
2019-02-21T08:18:05.536Z,5.62
2019-02-21T08:19:05.127Z,5.62
2019-02-21T08:20:08.104Z,5.69
2019-02-21T08:21:05.291Z,5.69
2019-02-21T08:22:05.956Z,5.69
2019-02-21T08:23:06.084Z,5.69
2019-02-21T08:24:05.306Z,5.75
2019-02-21T08:25:05.850Z,5.75
2019-02-21T08:26:05.516Z,5.75
2019-02-21T08:27:05.454Z,5.81
2019-02-21T08:28:06.018Z,5.88
2019-02-21T08:29:06.222Z,5.88
2019-02-21T08:30:05.966Z,5.94
2019-02-21T08:31:05.041Z,5.94
2019-02-21T08:32:05.299Z,5.94
2019-02-21T08:33:05.393Z,5.94
2019-02-21T08:34:05.696Z,5.94
2019-02-21T08:35:06.864Z,5.94
2019-02-21T08:36:05.382Z,6.00
2019-02-21T08:37:08.038Z,6.00
2019-02-21T08:38:05.382Z,6.00
2019-02-21T08:39:05.121Z,6.06
2019-02-21T08:40:05.597Z,6.06
2019-02-21T08:41:05.873Z,6.06
2019-02-21T08:42:06.036Z,6.12
2019-02-21T08:43:05.455Z,6.12
2019-02-21T08:44:05.868Z,6.19
2019-02-21T08:45:05.616Z,6.19
2019-02-21T08:46:06.043Z,6.25
2019-02-21T08:47:05.079Z,6.31
2019-02-21T08:48:05.539Z,6.31
2019-02-21T08:49:05.839Z,6.38
2019-02-21T08:50:05.655Z,6.44
2019-02-21T08:51:06.326Z,6.75
2019-02-21T08:52:05.381Z,6.88
2019-02-21T08:53:05.942Z,7.00
2019-02-21T08:54:06.042Z,7.19
2019-02-21T08:55:05.560Z,7.25
2019-02-21T08:56:05.619Z,7.38
2019-02-21T08:57:05.771Z,7.38
2019-02-21T08:58:07.801Z,7.38
2019-02-21T08:59:05.630Z,7.31
2019-02-21T09:00:06.020Z,7.31
2019-02-21T09:01:05.469Z,7.25
2019-02-21T09:02:05.404Z,7.25
2019-02-21T09:03:05.704Z,7.19
2019-02-21T09:04:10.297Z,7.19
2019-02-21T09:05:06.183Z,7.19
2019-02-21T09:06:05.562Z,7.19
2019-02-21T09:07:05.781Z,7.19
2019-02-21T09:08:05.860Z,7.19
2019-02-21T09:09:05.117Z,7.12
2019-02-21T09:10:05.208Z,7.19
2019-02-21T09:11:05.561Z,7.19
2019-02-21T09:12:05.880Z,7.19
2019-02-21T09:13:05.472Z,7.19
2019-02-21T09:14:05.629Z,7.25
2019-02-21T09:15:05.281Z,7.25
2019-02-21T09:16:05.922Z,7.25
2019-02-21T09:17:05.300Z,7.25
2019-02-21T09:18:05.858Z,7.31
2019-02-21T09:19:05.521Z,7.38
2019-02-21T09:20:06.000Z,7.38
2019-02-21T09:21:05.449Z,7.44
2019-02-21T09:22:05.996Z,7.44
2019-02-21T09:23:06.189Z,7.50
2019-02-21T09:24:05.230Z,7.50
2019-02-21T09:25:05.363Z,7.56
2019-02-21T09:26:05.146Z,7.62
2019-02-21T09:27:05.677Z,7.62
2019-02-21T09:28:05.544Z,7.69
2019-02-21T09:29:10.777Z,7.69
2019-02-21T09:30:05.563Z,7.75
2019-02-21T09:31:05.848Z,7.81
2019-02-21T09:32:06.902Z,7.81
2019-02-21T09:33:14.754Z,7.88
2019-02-21T09:34:05.215Z,7.88
2019-02-21T09:35:05.370Z,7.94
2019-02-21T09:36:05.056Z,7.94
2019-02-21T09:37:05.502Z,8.00
2019-02-21T09:38:05.129Z,8.06
2019-02-21T09:39:05.393Z,8.06
2019-02-21T09:40:05.795Z,8.12
2019-02-21T09:41:05.941Z,8.12
2019-02-21T09:42:05.161Z,8.19
2019-02-21T09:43:05.214Z,8.19
2019-02-21T09:44:05.779Z,8.25
2019-02-21T09:45:05.936Z,8.31
2019-02-21T09:46:06.000Z,8.31
2019-02-21T09:47:05.224Z,8.38
2019-02-21T09:48:05.226Z,8.44
2019-02-21T09:49:05.391Z,8.44
2019-02-21T09:50:05.642Z,8.50
2019-02-21T09:51:05.860Z,8.56
2019-02-21T09:52:05.239Z,8.62
2019-02-21T09:53:05.313Z,8.69
2019-02-21T09:54:05.709Z,8.69
2019-02-21T09:55:05.146Z,8.75
2019-02-21T09:56:05.522Z,8.81
2019-02-21T09:57:13.046Z,8.81
2019-02-21T09:58:06.023Z,8.88
2019-02-21T09:59:05.281Z,8.88
2019-02-21T10:00:05.557Z,8.94
2019-02-21T10:01:05.609Z,8.94
2019-02-21T10:02:06.040Z,9.00
2019-02-21T10:03:05.238Z,9.00
2019-02-21T10:04:05.549Z,9.06
2019-02-21T10:05:05.766Z,9.06
2019-02-21T10:06:05.718Z,9.12
2019-02-21T10:07:05.946Z,9.12
2019-02-21T10:08:05.234Z,9.12
2019-02-21T10:09:05.390Z,9.12
2019-02-21T10:10:07.952Z,9.12
2019-02-21T10:11:05.680Z,9.19
2019-02-21T10:12:05.537Z,9.19
2019-02-21T10:13:05.055Z,9.19
2019-02-21T10:14:05.642Z,9.19
2019-02-21T10:15:05.769Z,9.19
2019-02-21T10:16:06.008Z,9.19
2019-02-21T10:17:05.321Z,9.19
2019-02-21T10:18:05.374Z,9.25
2019-02-21T10:19:05.470Z,9.25
2019-02-21T10:20:05.916Z,9.25
2019-02-21T10:21:05.310Z,9.25
2019-02-21T10:22:05.698Z,9.31
2019-02-21T10:23:05.786Z,9.31
2019-02-21T10:24:05.951Z,9.31
2019-02-21T10:25:05.120Z,9.31
2019-02-21T10:26:05.346Z,9.31
2019-02-21T10:27:05.536Z,9.38
2019-02-21T10:28:05.124Z,9.38
2019-02-21T10:29:05.666Z,9.38
2019-02-21T10:30:05.845Z,9.38
2019-02-21T10:31:05.199Z,9.38
2019-02-21T10:32:05.959Z,9.44
2019-02-21T10:33:06.091Z,9.44
2019-02-21T10:34:05.148Z,9.44
2019-02-21T10:35:05.196Z,9.44
2019-02-21T10:36:05.381Z,9.44
2019-02-21T10:37:05.926Z,9.44
2019-02-21T10:38:05.070Z,9.44
2019-02-21T10:39:05.223Z,9.44
2019-02-21T10:40:05.540Z,9.44
2019-02-21T10:41:08.610Z,9.44
2019-02-21T10:42:05.039Z,9.44
2019-02-21T10:43:05.462Z,9.44
2019-02-21T10:44:05.859Z,9.44
2019-02-21T10:45:05.283Z,9.44
2019-02-21T10:46:05.515Z,9.50
2019-02-21T10:47:05.966Z,9.50
2019-02-21T10:48:05.155Z,9.50
2019-02-21T10:49:05.275Z,9.50
2019-02-21T10:50:05.856Z,9.50
2019-02-21T10:51:05.064Z,9.50
2019-02-21T10:52:05.305Z,9.50
2019-02-21T10:53:05.355Z,9.44
2019-02-21T10:54:06.036Z,9.44
2019-02-21T10:55:05.136Z,9.44
2019-02-21T10:56:05.795Z,9.44
2019-02-21T10:57:05.362Z,9.44
2019-02-21T10:58:05.862Z,9.44
2019-02-21T10:59:05.377Z,9.44
2019-02-21T11:00:05.697Z,9.44
2019-02-21T11:01:05.072Z,9.44
2019-02-21T11:02:05.564Z,9.44
2019-02-21T11:03:05.710Z,9.44
2019-02-21T11:04:05.718Z,9.38
2019-02-21T11:05:05.850Z,9.38
2019-02-21T11:06:05.060Z,9.38
2019-02-21T11:07:05.763Z,9.38
2019-02-21T11:08:05.055Z,9.38
2019-02-21T11:09:05.868Z,9.38
2019-02-21T11:10:05.952Z,9.38
2019-02-21T11:11:05.435Z,9.38
2019-02-21T11:12:06.043Z,9.38
2019-02-21T11:13:05.618Z,9.38
2019-02-21T11:14:05.711Z,9.38
2019-02-21T11:15:05.499Z,9.38
2019-02-21T11:16:06.123Z,9.38
2019-02-21T11:17:05.290Z,9.38
2019-02-21T11:18:05.380Z,9.38
2019-02-21T11:19:05.863Z,9.38
2019-02-21T11:20:05.154Z,9.38
2019-02-21T11:21:05.373Z,9.38
2019-02-21T11:22:05.564Z,9.38
2019-02-21T11:23:06.555Z,9.38
2019-02-21T11:24:05.309Z,9.38
2019-02-21T11:25:05.442Z,9.38
2019-02-21T11:26:05.138Z,9.38
2019-02-21T11:27:05.534Z,9.38
2019-02-21T11:28:06.108Z,9.38
2019-02-21T11:29:05.134Z,9.38
2019-02-21T11:30:05.702Z,9.38
2019-02-21T11:31:05.708Z,9.38
2019-02-21T11:32:05.957Z,9.38
2019-02-21T11:33:06.028Z,9.38
2019-02-21T11:34:05.237Z,9.38
2019-02-21T11:35:05.964Z,9.38
2019-02-21T11:36:05.512Z,9.38
2019-02-21T11:37:05.515Z,9.38
2019-02-21T11:38:05.779Z,9.38
2019-02-21T11:39:05.209Z,9.38
2019-02-21T11:40:05.773Z,9.38
2019-02-21T11:41:05.274Z,9.44
2019-02-21T11:42:06.118Z,9.44
2019-02-21T11:43:05.130Z,9.44
2019-02-21T11:44:05.307Z,9.44
2019-02-21T11:45:05.852Z,9.44
2019-02-21T11:46:06.110Z,9.44
2019-02-21T11:47:05.232Z,9.44
2019-02-21T11:48:05.538Z,9.44
2019-02-21T11:49:05.761Z,9.44
2019-02-21T11:50:05.483Z,9.44
2019-02-21T11:51:07.427Z,9.44
2019-02-21T11:52:09.986Z,9.44
2019-02-21T11:53:06.020Z,9.44
2019-02-21T11:54:05.449Z,9.44
2019-02-21T11:55:05.784Z,9.44
2019-02-21T11:56:06.022Z,9.44
2019-02-21T11:57:05.148Z,9.44
2019-02-21T11:58:05.380Z,9.44
2019-02-21T11:59:05.954Z,9.44
2019-02-21T12:00:06.283Z,9.44
2019-02-21T12:01:05.805Z,9.44
2019-02-21T12:02:05.156Z,9.44
2019-02-21T12:03:05.700Z,9.44
2019-02-21T12:04:06.037Z,9.44
2019-02-21T12:05:06.900Z,9.44
2019-02-21T12:06:05.976Z,9.44
2019-02-21T12:07:05.613Z,9.44
2019-02-21T12:08:05.701Z,9.44
2019-02-21T12:09:05.852Z,9.50
2019-02-21T12:10:05.377Z,9.50
2019-02-21T12:11:05.132Z,9.50
2019-02-21T12:12:05.307Z,9.50
2019-02-21T12:13:05.454Z,9.50
2019-02-21T12:14:05.478Z,9.50
2019-02-21T12:15:06.104Z,9.50
2019-02-21T12:16:05.469Z,9.50
2019-02-21T12:17:05.444Z,9.50
2019-02-21T12:18:05.785Z,9.50
2019-02-21T12:19:05.690Z,9.50
2019-02-21T12:20:05.132Z,9.56
2019-02-21T12:21:05.457Z,9.56
2019-02-21T12:22:05.868Z,9.56
2019-02-21T12:23:05.958Z,9.62
2019-02-21T12:24:05.327Z,9.62
2019-02-21T12:25:05.309Z,9.62
2019-02-21T12:26:05.654Z,9.62
2019-02-21T12:27:05.761Z,9.62
2019-02-21T12:28:06.028Z,9.69
2019-02-21T12:29:05.059Z,9.69
2019-02-21T12:30:05.715Z,9.75
2019-02-21T12:31:05.308Z,9.75
2019-02-21T12:32:05.547Z,9.81
2019-02-21T12:33:05.781Z,9.81
2019-02-21T12:34:05.949Z,9.88
2019-02-21T12:35:05.535Z,9.88
2019-02-21T12:36:05.621Z,9.88
2019-02-21T12:37:05.935Z,9.94
2019-02-21T12:38:05.384Z,9.94
2019-02-21T12:39:05.872Z,10.00
2019-02-21T12:40:05.143Z,10.00
2019-02-21T12:41:05.211Z,10.00
2019-02-21T12:42:05.381Z,10.06
2019-02-21T12:43:05.047Z,10.06
2019-02-21T12:44:05.217Z,10.06
2019-02-21T12:45:05.468Z,10.12
2019-02-21T12:46:06.023Z,10.12
2019-02-21T12:47:05.505Z,10.12
2019-02-21T12:48:05.488Z,10.19
2019-02-21T12:49:05.953Z,10.19
2019-02-21T12:50:05.304Z,10.19
2019-02-21T12:51:05.452Z,10.19
2019-02-21T12:52:05.952Z,10.25
2019-02-21T12:53:05.375Z,10.25
2019-02-21T12:54:06.032Z,10.25
2019-02-21T12:55:05.207Z,10.31
2019-02-21T12:56:05.391Z,10.31
2019-02-21T12:57:05.696Z,10.31
2019-02-21T12:58:05.068Z,10.38
2019-02-21T12:59:05.685Z,10.38
2019-02-21T13:00:05.799Z,10.38
2019-02-21T13:01:05.367Z,10.44
2019-02-21T13:02:05.978Z,10.44
2019-02-21T13:03:05.152Z,10.44
2019-02-21T13:04:05.564Z,10.50
2019-02-21T13:05:05.519Z,10.50
2019-02-21T13:06:05.064Z,10.50
2019-02-21T13:07:05.617Z,10.56
2019-02-21T13:08:05.786Z,10.56
2019-02-21T13:09:05.546Z,10.56
2019-02-21T13:10:05.699Z,10.62
2019-02-21T13:11:06.099Z,10.62
2019-02-21T13:12:05.550Z,10.62
2019-02-21T13:13:05.603Z,10.69
2019-02-21T13:14:05.389Z,10.69
2019-02-21T13:15:05.926Z,10.69
2019-02-21T13:16:05.309Z,10.69
2019-02-21T13:17:05.436Z,10.69